createdAt,value
2023-01-26T00:01:23.942Z,102473.06
2023-01-26T00:03:51.681Z,102475.66
2023-01-26T00:06:26.968Z,102468.72
2023-01-26T00:08:59.201Z,102465.22
2023-01-26T00:11:33.905Z,102462.59
2023-01-26T00:14:01.024Z,102468.69
2023-01-26T00:16:34.990Z,102444.34
2023-01-26T00:19:01.756Z,102448.66
2023-01-26T00:21:34.965Z,102464.31
2023-01-26T00:24:07.947Z,102447.81
2023-01-26T00:26:34.745Z,102455.59
2023-01-26T00:29:07.967Z,102444.28
2023-01-26T00:31:34.741Z,102431.25
2023-01-26T00:34:07.981Z,102449.50
2023-01-26T00:36:37.800Z,102417.34
2023-01-26T00:39:10.974Z,102420.81
2023-01-26T00:42:02.419Z,102432.09
2023-01-26T00:44:35.903Z,102438.19
2023-01-26T00:47:08.871Z,102427.75
2023-01-26T00:49:41.953Z,102432.06
2023-01-26T00:52:29.889Z,102427.72
2023-01-26T00:55:02.872Z,102426.00
2023-01-26T00:57:35.959Z,102421.63
2023-01-26T01:00:09.399Z,102412.94
2023-01-26T01:02:43.001Z,102425.09
2023-01-26T01:05:15.889Z,102410.31
2023-01-26T01:07:48.920Z,102408.56
2023-01-26T01:10:22.951Z,102415.53
2023-01-26T01:12:56.021Z,102416.41
2023-01-26T01:15:22.788Z,102421.63
2023-01-26T01:17:56.026Z,102419.88
2023-01-26T01:20:22.786Z,102405.94
2023-01-26T01:22:57.923Z,102409.44
2023-01-26T01:25:24.773Z,102413.78
2023-01-26T01:27:51.426Z,102424.22
2023-01-26T01:30:25.072Z,102402.47
2023-01-26T01:32:52.374Z,102416.38
2023-01-26T01:35:25.967Z,102408.56
2023-01-26T01:37:58.957Z,102408.56
2023-01-26T01:40:31.948Z,102398.13
2023-01-26T01:42:58.610Z,102406.81
2023-01-26T01:45:51.018Z,102416.38
2023-01-26T01:48:34.925Z,102414.63
2023-01-26T01:51:14.942Z,102394.63
2023-01-26T01:53:52.945Z,102409.41
2023-01-26T01:56:29.920Z,102389.44
2023-01-26T01:58:59.923Z,102395.47
2023-01-26T02:01:33.001Z,102403.31
2023-01-26T02:04:02.104Z,102399.81
2023-01-26T02:06:49.938Z,102400.69
2023-01-26T02:09:37.273Z,102390.25
2023-01-26T02:12:13.963Z,102405.00
2023-01-26T02:14:41.684Z,102402.41
2023-01-26T02:17:16.119Z,102389.34
2023-01-26T02:20:08.331Z,102384.97
2023-01-26T02:23:12.957Z,102381.47
2023-01-26T02:26:02.033Z,102392.81
2023-01-26T02:28:35.994Z,102396.25
2023-01-26T02:31:03.874Z,102382.34
2023-01-26T02:33:38.961Z,102390.19
2023-01-26T02:36:07.336Z,102384.09
2023-01-26T02:38:49.951Z,102389.31
2023-01-26T02:41:37.787Z,102381.50
2023-01-26T02:44:13.989Z,102387.56
2023-01-26T02:46:47.038Z,102388.41
2023-01-26T02:49:32.490Z,102368.41
2023-01-26T02:52:05.996Z,102388.41
2023-01-26T02:54:57.973Z,102377.94
2023-01-26T02:57:31.024Z,102383.16
2023-01-26T02:59:57.892Z,102371.88
2023-01-26T03:02:31.041Z,102371.00
2023-01-26T03:04:57.737Z,102368.41
2023-01-26T03:07:30.967Z,102384.03
2023-01-26T03:10:06.073Z,102374.44
2023-01-26T03:12:32.848Z,102361.41
2023-01-26T03:15:24.969Z,102353.56
2023-01-26T03:17:51.724Z,102353.59
2023-01-26T03:20:42.960Z,102367.50
2023-01-26T03:23:28.222Z,102363.13
2023-01-26T03:26:20.039Z,102364.84
2023-01-26T03:28:53.011Z,102368.34
2023-01-26T03:31:26.046Z,102372.66
2023-01-26T03:33:58.971Z,102376.16
2023-01-26T03:36:32.031Z,102379.63
2023-01-26T03:39:05.270Z,102387.47
2023-01-26T03:41:50.864Z,102386.59
2023-01-26T03:44:42.997Z,102379.66
2023-01-26T03:47:28.301Z,102386.59
2023-01-26T03:50:20.003Z,102373.56
2023-01-26T03:53:12.017Z,102386.63
2023-01-26T03:55:57.611Z,102385.72
2023-01-26T03:58:30.991Z,102384.00
2023-01-26T04:00:57.908Z,102378.75
2023-01-26T04:03:49.976Z,102374.38
2023-01-26T04:06:42.017Z,102376.06
2023-01-26T04:09:15.013Z,102376.94
2023-01-26T04:11:48.077Z,102381.31
2023-01-26T04:14:49.735Z,102377.78
2023-01-26T04:17:37.001Z,102363.00
2023-01-26T04:20:31.072Z,102376.00
2023-01-26T04:22:57.811Z,102377.78
2023-01-26T04:25:31.047Z,102372.53
2023-01-26T04:27:58.039Z,102362.06
2023-01-26T04:30:31.152Z,102366.44
2023-01-26T04:33:06.060Z,102358.66
2023-01-26T04:35:40.960Z,102369.03
2023-01-26T04:38:14.045Z,102380.34
2023-01-26T04:40:47.053Z,102376.00
2023-01-26T04:43:13.764Z,102372.50
2023-01-26T04:45:47.129Z,102375.97
2023-01-26T04:48:13.792Z,102365.53
2023-01-26T04:50:47.195Z,102379.44
2023-01-26T04:53:20.110Z,102369.84
2023-01-26T04:55:52.999Z,102366.34
2023-01-26T04:58:20.216Z,102358.53
2023-01-26T05:01:01.100Z,102359.38
2023-01-26T05:03:27.835Z,102346.31
2023-01-26T05:05:58.297Z,102348.91
2023-01-26T05:08:33.080Z,102341.94
2023-01-26T05:10:59.758Z,102346.22
2023-01-26T05:13:32.993Z,102339.28
2023-01-26T05:15:59.624Z,102340.13
2023-01-26T05:18:33.036Z,102336.63
2023-01-26T05:21:06.082Z,102339.22
2023-01-26T05:23:32.778Z,102328.78
2023-01-26T05:26:06.075Z,102334.91
2023-01-26T05:28:34.331Z,102331.38
2023-01-26T05:31:08.057Z,102347.91
2023-01-26T05:33:34.973Z,102337.47
2023-01-26T05:36:12.047Z,102334.00
2023-01-26T05:38:38.806Z,102342.69
2023-01-26T05:41:14.055Z,102347.06
2023-01-26T05:43:41.004Z,102342.69
2023-01-26T05:46:14.153Z,102347.06
2023-01-26T05:48:40.912Z,102348.75
2023-01-26T05:51:14.114Z,102347.00
2023-01-26T05:53:47.402Z,102335.69
2023-01-26T05:56:21.032Z,102336.56
2023-01-26T05:58:47.670Z,102343.53
2023-01-26T06:01:21.061Z,102344.38
2023-01-26T06:03:54.061Z,102348.75
2023-01-26T06:06:20.870Z,102342.63
2023-01-26T06:08:54.016Z,102342.63
2023-01-26T06:11:20.808Z,102340.03
2023-01-26T06:13:55.025Z,102348.72
2023-01-26T06:16:21.838Z,102343.50
2023-01-26T06:18:56.078Z,102344.38
2023-01-26T06:21:23.143Z,102347.81
2023-01-26T06:23:56.150Z,102346.97
2023-01-26T06:26:31.090Z,102346.06
2023-01-26T06:28:57.890Z,102351.28
2023-01-26T06:31:31.184Z,102341.72
2023-01-26T06:33:57.926Z,102345.22
2023-01-26T06:36:24.654Z,102353.91
2023-01-26T06:39:00.958Z,102353.00
2023-01-26T06:41:34.121Z,102362.59
2023-01-26T06:44:00.863Z,102355.59
2023-01-26T06:46:34.045Z,102354.72
2023-01-26T06:49:09.056Z,102361.69
2023-01-26T06:51:41.770Z,102368.66
2023-01-26T06:54:27.040Z,102367.78
2023-01-26T06:56:53.743Z,102357.31
2023-01-26T06:59:27.008Z,102366.00
2023-01-26T07:01:53.781Z,102368.59
2023-01-26T07:04:27.080Z,102374.69
2023-01-26T07:07:00.089Z,102375.59
2023-01-26T07:09:26.774Z,102370.31
2023-01-26T07:12:00.108Z,102363.34
2023-01-26T07:14:33.131Z,102365.09
2023-01-26T07:16:59.917Z,102365.13
2023-01-26T07:19:26.613Z,102368.56
2023-01-26T07:22:00.125Z,102370.28
2023-01-26T07:24:26.957Z,102368.56
2023-01-26T07:27:00.268Z,102376.38
2023-01-26T07:29:26.919Z,102376.38
2023-01-26T07:32:00.183Z,102378.97
2023-01-26T07:34:26.974Z,102370.22
2023-01-26T07:37:00.177Z,102378.94
2023-01-26T07:39:27.088Z,102362.38
2023-01-26T07:41:53.841Z,102384.16
2023-01-26T07:44:27.221Z,102378.00
2023-01-26T07:46:54.886Z,102385.03
2023-01-26T07:49:28.201Z,102385.00
2023-01-26T07:52:02.337Z,102383.25
2023-01-26T07:54:43.054Z,102387.59
2023-01-26T07:57:16.039Z,102388.47
2023-01-26T07:59:49.042Z,102391.09
2023-01-26T08:02:15.803Z,102397.19
2023-01-26T08:04:49.067Z,102392.78
2023-01-26T08:07:15.914Z,102389.25
2023-01-26T08:09:49.096Z,102401.47
2023-01-26T08:12:15.747Z,102397.94
2023-01-26T08:14:47.101Z,102393.59
2023-01-26T08:17:28.060Z,102397.94
2023-01-26T08:20:01.166Z,102399.66
2023-01-26T08:22:34.245Z,102398.75
2023-01-26T08:25:01.189Z,102408.34
2023-01-26T08:27:34.025Z,102403.06
2023-01-26T08:30:00.718Z,102405.66
2023-01-26T08:32:37.089Z,102393.44
2023-01-26T08:35:04.432Z,102388.16
2023-01-26T08:37:38.252Z,102396.03
2023-01-26T08:40:08.454Z,102389.88
2023-01-26T08:42:42.065Z,102394.22
2023-01-26T08:45:09.024Z,102401.19
2023-01-26T08:47:42.113Z,102398.56
2023-01-26T08:50:09.915Z,102397.66
2023-01-26T08:52:43.120Z,102386.34
2023-01-26T08:55:23.251Z,102402.84
2023-01-26T08:57:52.820Z,102404.59
2023-01-26T09:00:26.104Z,102419.44
2023-01-26T09:03:07.190Z,102407.19
2023-01-26T09:05:43.070Z,102412.44
2023-01-26T09:08:10.739Z,102407.16
2023-01-26T09:10:45.147Z,102403.72
2023-01-26T09:13:12.005Z,102408.91
2023-01-26T09:15:45.119Z,102414.97
2023-01-26T09:18:11.937Z,102406.25
2023-01-26T09:20:46.162Z,102391.44
2023-01-26T09:23:12.767Z,102407.06
2023-01-26T09:25:40.050Z,102395.72
2023-01-26T09:28:14.171Z,102397.44
2023-01-26T09:30:41.002Z,102400.91
2023-01-26T09:33:14.218Z,102402.59
2023-01-26T09:35:40.901Z,102404.25
2023-01-26T09:38:14.148Z,102401.59
2023-01-26T09:41:01.785Z,102399.81
2023-01-26T09:44:00.176Z,102390.16
2023-01-26T09:47:02.114Z,102388.28
2023-01-26T09:49:31.823Z,102387.41
2023-01-26T09:52:21.084Z,102395.19
2023-01-26T09:55:00.244Z,102402.16
2023-01-26T09:57:54.140Z,102410.78
2023-01-26T10:00:46.155Z,102402.88
2023-01-26T10:03:44.859Z,102400.25
2023-01-26T10:06:35.124Z,102403.69
2023-01-26T10:09:15.071Z,102397.47
2023-01-26T10:11:53.275Z,102403.47
2023-01-26T10:14:37.059Z,102397.25
2023-01-26T10:17:06.326Z,102397.09
2023-01-26T10:20:18.219Z,102399.59
2023-01-26T10:22:52.222Z,102395.13
2023-01-26T10:25:33.496Z,102400.25
2023-01-26T10:28:07.157Z,102413.28
2023-01-26T10:30:33.868Z,102405.38
2023-01-26T10:33:07.140Z,102408.00
2023-01-26T10:35:33.899Z,102402.75
2023-01-26T10:38:07.169Z,102405.28
2023-01-26T10:40:44.685Z,102403.44
2023-01-26T10:43:26.178Z,102399.94
2023-01-26T10:45:59.151Z,102409.47
2023-01-26T10:48:33.180Z,102406.75
2023-01-26T10:51:21.753Z,102392.69
2023-01-26T10:53:55.442Z,102397.78
2023-01-26T10:56:22.233Z,102395.91
2023-01-26T10:59:02.137Z,102405.28
2023-01-26T11:01:28.924Z,102405.06
2023-01-26T11:04:13.155Z,102410.09
2023-01-26T11:06:39.970Z,102396.78
2023-01-26T11:09:21.149Z,102397.44
2023-01-26T11:12:06.034Z,102402.50
2023-01-26T11:14:40.149Z,102387.50
2023-01-26T11:17:08.191Z,102390.00
2023-01-26T11:19:56.187Z,102391.63
2023-01-26T11:22:33.863Z,102394.06
2023-01-26T11:25:10.597Z,102392.16
2023-01-26T11:27:54.586Z,102392.91
2023-01-26T11:30:37.226Z,102372.88
2023-01-26T11:33:30.652Z,102386.66
2023-01-26T11:36:23.265Z,102382.22
2023-01-26T11:39:35.112Z,102379.56
2023-01-26T11:42:24.183Z,102386.31
2023-01-26T11:45:11.672Z,102395.75
2023-01-26T11:48:00.215Z,102389.53
2023-01-26T11:51:03.632Z,102391.09
2023-01-26T11:54:03.250Z,102383.91
2023-01-26T11:57:01.218Z,102391.56
2023-01-26T11:59:40.194Z,102382.72
2023-01-26T12:02:34.337Z,102383.56
2023-01-26T12:05:13.629Z,102388.38
2023-01-26T12:08:03.245Z,102384.38
2023-01-26T12:10:42.173Z,102369.25
2023-01-26T12:13:37.389Z,102375.97
2023-01-26T12:16:22.262Z,102361.22
2023-01-26T12:19:11.193Z,102369.50
2023-01-26T12:21:50.287Z,102365.00
2023-01-26T12:25:01.123Z,102364.22
2023-01-26T12:27:45.164Z,102354.16
2023-01-26T12:30:49.351Z,102351.16
2023-01-26T12:33:23.204Z,102339.22
2023-01-26T12:36:24.162Z,102320.53
2023-01-26T12:39:08.176Z,102321.59
2023-01-26T12:42:10.185Z,102319.16
2023-01-26T12:44:47.391Z,102309.28
2023-01-26T12:47:38.175Z,102319.25
2023-01-26T12:50:04.898Z,102313.00
2023-01-26T12:52:49.302Z,102306.91
2023-01-26T12:55:44.247Z,102301.31
2023-01-26T12:58:38.221Z,102311.06
2023-01-26T13:01:13.320Z,102306.66
2023-01-26T13:04:02.289Z,102303.91
2023-01-26T13:06:29.577Z,102299.34
2023-01-26T13:09:24.206Z,102289.72
2023-01-26T13:11:56.344Z,102291.16
2023-01-26T13:14:42.174Z,102289.59
2023-01-26T13:17:17.931Z,102291.50
2023-01-26T13:19:51.216Z,102300.81
2023-01-26T13:22:33.192Z,102285.13
2023-01-26T13:25:14.533Z,102297.34
2023-01-26T13:27:53.213Z,102286.91
2023-01-26T13:30:32.347Z,102288.47
2023-01-26T13:33:32.251Z,102284.78
2023-01-26T13:36:02.413Z,102284.53
2023-01-26T13:38:59.235Z,102284.03
2023-01-26T13:41:26.055Z,102282.31
2023-01-26T13:44:20.260Z,102282.88
2023-01-26T13:47:04.351Z,102275.25
2023-01-26T13:49:42.499Z,102277.91
2023-01-26T13:52:35.351Z,102274.63
2023-01-26T13:55:20.260Z,102280.22
2023-01-26T13:57:56.376Z,102281.63
2023-01-26T14:00:23.138Z,102276.38
2023-01-26T14:02:56.287Z,102277.91
2023-01-26T14:05:23.417Z,102279.69
2023-01-26T14:07:57.329Z,102268.34
2023-01-26T14:10:24.458Z,102266.72
2023-01-26T14:13:03.234Z,102278.31
2023-01-26T14:15:33.078Z,102277.06
2023-01-26T14:18:09.316Z,102278.59
2023-01-26T14:20:46.227Z,102275.75
2023-01-26T14:23:22.257Z,102284.31
2023-01-26T14:25:59.344Z,102284.53
2023-01-26T14:28:38.253Z,102284.75
2023-01-26T14:31:18.789Z,102292.09
2023-01-26T14:33:53.281Z,102287.91
2023-01-26T14:36:28.270Z,102289.13
2023-01-26T14:39:01.231Z,102294.47
2023-01-26T14:41:38.265Z,102289.22
2023-01-26T14:44:12.254Z,102286.59
2023-01-26T14:47:20.246Z,102295.47
2023-01-26T14:49:57.258Z,102291.16
2023-01-26T14:52:25.733Z,102297.38
2023-01-26T14:55:08.242Z,102292.22
2023-01-26T14:57:41.662Z,102295.03
2023-01-26T15:00:32.305Z,102298.66
2023-01-26T15:03:01.838Z,102298.78
2023-01-26T15:05:46.523Z,102298.91
2023-01-26T15:08:23.811Z,102306.16
2023-01-26T15:10:57.222Z,102304.41
2023-01-26T15:13:29.651Z,102301.09
2023-01-26T15:16:18.349Z,102303.06
2023-01-26T15:18:46.056Z,102305.00
2023-01-26T15:21:29.268Z,102304.19
2023-01-26T15:24:02.377Z,102300.72
2023-01-26T15:26:41.314Z,102299.91
2023-01-26T15:29:28.327Z,102297.25
2023-01-26T15:32:03.242Z,102294.88
2023-01-26T15:34:42.271Z,102297.53
2023-01-26T15:37:48.317Z,102300.25
2023-01-26T15:40:15.566Z,102294.22
2023-01-26T15:42:49.296Z,102293.47
2023-01-26T15:45:24.754Z,102303.16
2023-01-26T15:47:58.325Z,102295.44
2023-01-26T15:50:32.268Z,102294.56
2023-01-26T15:53:08.000Z,102289.44
2023-01-26T15:55:42.301Z,102299.97
2023-01-26T15:58:08.964Z,102298.25
2023-01-26T16:00:43.476Z,102294.00
2023-01-26T16:03:15.382Z,102293.94
2023-01-26T16:05:49.232Z,102296.44
2023-01-26T16:08:24.365Z,102292.09
2023-01-26T16:10:51.419Z,102302.66
2023-01-26T16:13:29.319Z,102289.22
2023-01-26T16:15:56.155Z,102295.78
2023-01-26T16:18:22.812Z,102289.53
2023-01-26T16:20:58.516Z,102298.25
2023-01-26T16:23:35.299Z,102304.81
2023-01-26T16:26:08.307Z,102309.50
2023-01-26T16:28:34.997Z,102319.63
2023-01-26T16:31:08.326Z,102314.75
2023-01-26T16:33:41.273Z,102311.63
2023-01-26T16:36:10.623Z,102307.09
2023-01-26T16:38:44.281Z,102318.03
2023-01-26T16:41:22.279Z,102325.16
2023-01-26T16:43:48.943Z,102321.88
2023-01-26T16:46:22.249Z,102325.13
2023-01-26T16:48:49.064Z,102318.06
2023-01-26T16:51:33.282Z,102327.72
2023-01-26T16:54:29.305Z,102334.34
2023-01-26T16:57:02.334Z,102329.78
2023-01-26T16:59:29.044Z,102321.03
2023-01-26T17:02:02.332Z,102328.66
2023-01-26T17:04:35.259Z,102336.13
2023-01-26T17:07:01.983Z,102327.72
2023-01-26T17:09:42.320Z,102321.94
2023-01-26T17:12:18.304Z,102331.72
2023-01-26T17:14:44.997Z,102330.06
2023-01-26T17:17:18.352Z,102321.38
2023-01-26T17:19:45.125Z,102314.66
2023-01-26T17:22:18.348Z,102331.16
2023-01-26T17:24:51.336Z,102328.53
2023-01-26T17:27:24.355Z,102325.13
2023-01-26T17:29:51.114Z,102328.75
2023-01-26T17:32:31.388Z,102326.13
2023-01-26T17:34:58.107Z,102330.59
2023-01-26T17:37:34.344Z,102328.91
2023-01-26T17:40:07.342Z,102336.81
2023-01-26T17:42:41.343Z,102338.69
2023-01-26T17:45:10.187Z,102339.66
2023-01-26T17:47:45.299Z,102339.66
2023-01-26T17:50:11.962Z,102338.91
2023-01-26T17:52:45.350Z,102337.19
2023-01-26T17:55:18.290Z,102341.66
2023-01-26T17:57:51.680Z,102336.44
2023-01-26T18:00:25.323Z,102337.34
2023-01-26T18:02:51.961Z,102339.91
2023-01-26T18:05:25.421Z,102340.78
2023-01-26T18:07:51.973Z,102340.97
2023-01-26T18:10:18.821Z,102339.22
2023-01-26T18:12:52.309Z,102337.44
2023-01-26T18:15:18.973Z,102355.91
2023-01-26T18:17:52.353Z,102337.44
2023-01-26T18:20:19.192Z,102339.16
2023-01-26T18:22:52.491Z,102346.34
2023-01-26T18:25:20.992Z,102341.91
2023-01-26T18:27:54.364Z,102343.88
2023-01-26T18:30:21.121Z,102356.09
2023-01-26T18:32:54.332Z,102355.25
2023-01-26T18:35:20.994Z,102351.78
2023-01-26T18:37:54.403Z,102352.69
2023-01-26T18:40:21.239Z,102358.75
2023-01-26T18:42:47.873Z,102361.31
2023-01-26T18:45:21.376Z,102351.72
2023-01-26T18:47:56.438Z,102351.72
2023-01-26T18:50:23.247Z,102362.13
2023-01-26T18:52:49.897Z,102360.44
2023-01-26T18:55:23.353Z,102363.97
2023-01-26T18:57:50.941Z,102353.44
2023-01-26T19:00:24.395Z,102333.66
2023-01-26T19:02:57.759Z,102358.75
2023-01-26T19:05:31.405Z,102360.56
2023-01-26T19:07:58.248Z,102364.03
2023-01-26T19:10:31.395Z,102357.97
2023-01-26T19:12:58.124Z,102357.97
2023-01-26T19:15:27.983Z,102362.50
2023-01-26T19:18:01.421Z,102354.69
2023-01-26T19:20:28.447Z,102360.94
2023-01-26T19:23:03.497Z,102362.72
2023-01-26T19:25:31.061Z,102362.69
2023-01-26T19:28:04.370Z,102362.72
2023-01-26T19:30:31.420Z,102361.91
2023-01-26T19:33:23.374Z,102357.53
2023-01-26T19:35:58.374Z,102365.50
2023-01-26T19:38:25.452Z,102357.81
2023-01-26T19:40:59.413Z,102370.03
2023-01-26T19:43:26.268Z,102364.09
2023-01-26T19:46:01.486Z,102367.63
2023-01-26T19:48:29.178Z,102364.09
2023-01-26T19:51:17.509Z,102361.56
2023-01-26T19:53:46.714Z,102362.50
2023-01-26T19:56:25.481Z,102365.31
2023-01-26T19:59:00.391Z,102361.03
2023-01-26T20:01:35.408Z,102362.97
2023-01-26T20:04:09.327Z,102359.63
2023-01-26T20:06:44.450Z,102364.03
2023-01-26T20:09:11.135Z,102360.63
2023-01-26T20:11:46.446Z,102366.84
2023-01-26T20:14:22.371Z,102369.59
2023-01-26T20:16:49.223Z,102365.44
2023-01-26T20:19:22.366Z,102368.97
2023-01-26T20:21:49.259Z,102363.84
2023-01-26T20:24:23.465Z,102359.47
2023-01-26T20:26:57.387Z,102359.59
2023-01-26T20:29:30.449Z,102359.72
2023-01-26T20:31:57.225Z,102367.75
2023-01-26T20:34:30.471Z,102359.78
2023-01-26T20:37:00.340Z,102364.28
2023-01-26T20:39:34.430Z,102362.53
2023-01-26T20:42:07.531Z,102356.47
2023-01-26T20:44:43.347Z,102367.91
2023-01-26T20:47:10.208Z,102369.66
2023-01-26T20:49:44.396Z,102368.78
2023-01-26T20:52:17.395Z,102367.91
2023-01-26T20:54:50.441Z,102379.19
2023-01-26T20:57:17.464Z,102374.78
2023-01-26T20:59:51.427Z,102380.88
2023-01-26T21:02:18.216Z,102386.09
2023-01-26T21:04:51.463Z,102373.81
2023-01-26T21:07:24.418Z,102381.66
2023-01-26T21:09:51.107Z,102380.84
2023-01-26T21:12:24.405Z,102380.88
2023-01-26T21:14:51.213Z,102377.38
2023-01-26T21:17:26.453Z,102375.63
2023-01-26T21:19:53.197Z,102376.44
2023-01-26T21:22:27.415Z,102377.31
2023-01-26T21:24:54.256Z,102378.25
2023-01-26T21:27:27.567Z,102379.03
2023-01-26T21:29:54.294Z,102376.38
2023-01-26T21:32:27.482Z,102386.09
2023-01-26T21:34:54.221Z,102381.78
2023-01-26T21:37:27.420Z,102381.78
2023-01-26T21:40:00.532Z,102381.88
2023-01-26T21:42:27.346Z,102368.00
2023-01-26T21:45:32.495Z,102379.34
2023-01-26T21:48:24.408Z,102386.38
2023-01-26T21:51:19.424Z,102373.22
2023-01-26T21:53:47.709Z,102374.94
2023-01-26T21:56:28.456Z,102375.88
2023-01-26T21:58:57.803Z,102370.66
2023-01-26T22:01:32.523Z,102376.81
2023-01-26T22:04:00.999Z,102384.75
2023-01-26T22:06:35.500Z,102385.72
2023-01-26T22:09:02.337Z,102386.59
2023-01-26T22:11:35.450Z,102383.19
2023-01-26T22:14:02.284Z,102384.94
2023-01-26T22:16:35.600Z,102376.38
2023-01-26T22:19:02.394Z,102391.16
2023-01-26T22:21:35.501Z,102383.47
2023-01-26T22:24:02.510Z,102393.94
2023-01-26T22:26:35.546Z,102397.47
2023-01-26T22:29:13.436Z,102397.53
2023-01-26T22:31:40.189Z,102394.22
2023-01-26T22:34:13.473Z,102406.44
2023-01-26T22:36:41.206Z,102409.06
2023-01-26T22:39:14.424Z,102408.25
2023-01-26T22:41:41.142Z,102406.63
2023-01-26T22:44:14.438Z,102416.25
2023-01-26T22:46:41.243Z,102411.91
2023-01-26T22:49:14.507Z,102418.16
2023-01-26T22:51:49.071Z,102414.66
2023-01-26T22:54:22.552Z,102420.03
2023-01-26T22:57:02.432Z,102417.38
2023-01-26T22:59:29.603Z,102415.69
2023-01-26T23:02:02.469Z,102413.13
2023-01-26T23:04:29.243Z,102420.19
2023-01-26T23:07:02.531Z,102430.78
2023-01-26T23:09:29.449Z,102426.44
2023-01-26T23:12:02.513Z,102429.06
2023-01-26T23:14:30.906Z,102437.94
2023-01-26T23:17:04.512Z,102437.16
2023-01-26T23:19:33.715Z,102435.41
2023-01-26T23:22:06.453Z,102431.94
2023-01-26T23:24:33.239Z,102431.94
2023-01-26T23:27:06.505Z,102442.50
2023-01-26T23:29:33.263Z,102439.91
2023-01-26T23:32:00.039Z,102444.41
2023-01-26T23:34:33.501Z,102445.22
2023-01-26T23:37:06.511Z,102450.50
2023-01-26T23:39:39.520Z,102444.41
2023-01-26T23:42:06.712Z,102431.34
2023-01-26T23:44:39.514Z,102423.53
2023-01-26T23:47:06.417Z,102438.34
2023-01-26T23:49:39.575Z,102435.72
2023-01-26T23:52:06.385Z,102443.63
2023-01-26T23:54:39.477Z,102436.59
2023-01-26T23:57:12.616Z,102437.56
2023-01-26T23:59:45.546Z,102429.66
